createdAt,value
2018-03-26T00:04:05.749Z,7.66
2018-03-26T00:09:56.572Z,7.33
2018-03-26T00:15:47.431Z,7.67
2018-03-26T00:21:38.277Z,8.08
2018-03-26T00:27:29.166Z,8.47
2018-03-26T00:33:20.098Z,7.99
2018-03-26T00:39:10.841Z,7.81
2018-03-26T00:45:01.713Z,7.79
2018-03-26T00:50:52.581Z,9.16
2018-03-26T00:56:43.428Z,7.66
2018-03-26T01:02:34.290Z,8.45
2018-03-26T01:08:25.144Z,8.08
2018-03-26T01:14:16.066Z,7.89
2018-03-26T01:20:06.841Z,7.41
2018-03-26T01:25:57.679Z,7.34
2018-03-26T01:31:48.557Z,7.96
2018-03-26T01:37:39.380Z,7.65
2018-03-26T01:43:30.241Z,7.07
2018-03-26T01:49:21.108Z,7.44
2018-03-26T01:55:11.990Z,7.25
2018-03-26T02:01:02.810Z,7.51
2018-03-26T02:06:53.673Z,6.9
2018-03-26T02:12:44.534Z,6.6
2018-03-26T02:18:35.377Z,7.03
2018-03-26T02:24:26.260Z,6.81
2018-03-26T02:30:17.105Z,7.58
2018-03-26T02:36:07.931Z,7.03
2018-03-26T02:41:58.796Z,7.95
2018-03-26T02:47:49.658Z,7.55
2018-03-26T02:53:40.490Z,6.93
2018-03-26T02:59:31.341Z,6.25
2018-03-26T03:05:22.208Z,6.47
2018-03-26T03:11:13.114Z,6.97
2018-03-26T03:17:03.891Z,6.19
2018-03-26T03:22:54.771Z,6.95
2018-03-26T03:28:45.598Z,6.57
2018-03-26T03:34:36.452Z,6.74
2018-03-26T03:40:27.273Z,6.94
2018-03-26T03:46:18.176Z,6.5
2018-03-26T03:52:09.011Z,6.17
2018-03-26T03:57:59.846Z,6.91
2018-03-26T04:03:50.698Z,7.66
2018-03-26T04:09:41.544Z,7.27
2018-03-26T04:15:32.447Z,7.13
2018-03-26T04:21:23.308Z,7.4
2018-03-26T04:27:14.129Z,7.47
2018-03-26T04:33:05.011Z,8.24
2018-03-26T04:38:55.791Z,7.36
2018-03-26T04:44:46.674Z,7.24
2018-03-26T04:50:37.546Z,7.87
2018-03-26T04:56:28.338Z,6.94
2018-03-26T05:02:19.171Z,7.51
2018-03-26T05:08:10.042Z,7.05
2018-03-26T05:14:00.891Z,7.68
2018-03-26T05:19:51.776Z,7.99
2018-03-26T05:25:42.579Z,7.56
2018-03-26T05:31:33.473Z,7.32
2018-03-26T05:37:24.299Z,10.56
2018-03-26T05:43:15.123Z,12.95
2018-03-26T05:49:06.031Z,14.91
2018-03-26T05:54:56.820Z,30.28
2018-03-26T06:00:47.689Z,31.9
2018-03-26T06:06:38.573Z,46.69
2018-03-26T06:12:29.359Z,42.68
2018-03-26T06:18:20.233Z,42.85
2018-03-26T06:24:11.114Z,38.03
2018-03-26T06:30:01.965Z,34.61
2018-03-26T06:35:52.782Z,36.69
2018-03-26T06:41:43.581Z,34.85
2018-03-26T06:47:34.450Z,34.96
2018-03-26T06:53:25.352Z,42.51
2018-03-26T06:59:16.205Z,46.85
2018-03-26T07:05:07.027Z,44.01
2018-03-26T07:10:57.850Z,40.36
2018-03-26T07:16:48.674Z,34.61
2018-03-26T07:22:39.539Z,30.05
2018-03-26T07:28:30.382Z,24.76
2018-03-26T07:34:21.221Z,23.67
2018-03-26T07:40:12.061Z,20.39
2018-03-26T07:46:02.971Z,18.14
2018-03-26T07:51:53.856Z,16.47
2018-03-26T07:57:44.639Z,14.25
2018-03-26T08:03:35.520Z,15.31
2018-03-26T08:09:26.392Z,14.51
2018-03-26T08:15:17.219Z,15.67
2018-03-26T08:21:08.075Z,13.6
2018-03-26T08:26:58.894Z,12.47
2018-03-26T08:32:49.784Z,11.94
2018-03-26T08:38:40.639Z,13.28
2018-03-26T08:44:31.460Z,12.8
2018-03-26T08:50:22.405Z,10.79
2018-03-26T08:56:13.264Z,9.86
2018-03-26T09:02:04.117Z,10.4
2018-03-26T09:07:55.010Z,9.45
2018-03-26T09:13:45.793Z,8.57
2018-03-26T09:19:36.656Z,9.41
2018-03-26T09:25:27.540Z,8.37
2018-03-26T09:31:18.353Z,8.58
2018-03-26T09:37:09.227Z,7.3
2018-03-26T09:43:00.140Z,7.71
2018-03-26T09:48:50.944Z,7.36
2018-03-26T09:54:41.859Z,7.19
2018-03-26T10:00:32.693Z,7.07
2018-03-26T10:06:23.611Z,7.52
2018-03-26T10:12:14.400Z,7.26
2018-03-26T10:18:05.247Z,7.28
2018-03-26T10:23:56.131Z,6.73
2018-03-26T10:29:47.052Z,7.45
2018-03-26T10:35:37.871Z,8.95
2018-03-26T10:41:28.736Z,8.44
2018-03-26T10:47:19.628Z,8.35
2018-03-26T10:53:10.474Z,8.69
2018-03-26T10:59:01.366Z,9.09
2018-03-26T11:04:52.215Z,8.28
2018-03-26T11:10:43.124Z,7.29
2018-03-26T11:16:33.975Z,7.14
2018-03-26T11:22:24.834Z,7.4
2018-03-26T11:28:15.658Z,7.23
2018-03-26T11:34:06.542Z,6.73
2018-03-26T11:39:57.452Z,7.13
2018-03-26T11:45:48.315Z,7.46
2018-03-26T11:51:39.195Z,7.65
2018-03-26T11:57:30.109Z,8.53
2018-03-26T12:03:20.987Z,7.74
2018-03-26T12:09:11.914Z,7.17
2018-03-26T12:15:02.764Z,8.56
2018-03-26T12:20:53.644Z,8.01
2018-03-26T12:26:44.564Z,8.21
2018-03-26T12:32:35.423Z,8.77
2018-03-26T12:38:26.342Z,8.2
2018-03-26T12:44:17.241Z,8.55
2018-03-26T12:50:08.156Z,9.11
2018-03-26T12:55:59.064Z,8.89
2018-03-26T13:01:49.978Z,7.99
2018-03-26T13:07:40.876Z,8.36
2018-03-26T13:13:31.786Z,7.95
2018-03-26T13:19:22.690Z,8.64
2018-03-26T13:25:13.610Z,8.29
2018-03-26T13:31:04.487Z,8.84
2018-03-26T13:36:55.400Z,7.59
2018-03-26T13:42:46.320Z,7.5
2018-03-26T13:48:37.238Z,7.35
2018-03-26T13:54:28.116Z,8.88
2018-03-26T14:00:19.090Z,8.54
2018-03-26T14:06:09.950Z,8.02
2018-03-26T14:12:00.886Z,8.48
2018-03-26T14:17:51.785Z,9.12
2018-03-26T14:23:42.740Z,15.44
2018-03-26T14:29:33.778Z,14.19
2018-03-26T14:35:24.608Z,9.2
2018-03-26T14:41:15.590Z,8.09
2018-03-26T14:47:06.437Z,11.92
2018-03-26T14:52:57.314Z,19.73
2018-03-26T14:58:48.252Z,18.39
2018-03-26T15:04:39.226Z,20.12
2018-03-26T15:10:30.068Z,16.7
2018-03-26T15:16:20.988Z,13.54
2018-03-26T15:22:11.882Z,12.51
2018-03-26T15:28:02.813Z,11.57
2018-03-26T15:33:53.680Z,12.41
2018-03-26T15:39:44.549Z,13.04
2018-03-26T15:45:35.448Z,10.71
2018-03-26T15:51:26.355Z,8.55
2018-03-26T15:57:17.280Z,8.63
2018-03-26T16:03:08.161Z,7.84
2018-03-26T16:08:59.075Z,7.19
2018-03-26T16:14:50.011Z,6.69
2018-03-26T16:20:40.852Z,6.96
2018-03-26T16:26:31.723Z,5.38
2018-03-26T16:32:22.640Z,5.87
2018-03-26T16:38:13.639Z,5.02
2018-03-26T16:44:04.429Z,4.72
2018-03-26T16:49:55.382Z,4.97
2018-03-26T16:55:46.241Z,4.8
2018-03-26T17:01:37.052Z,4.22
2018-03-26T17:07:27.994Z,4.57
2018-03-26T17:13:18.853Z,4.34
2018-03-26T17:19:09.753Z,4.11
2018-03-26T17:25:00.648Z,4.69
2018-03-26T17:30:51.509Z,4.99
2018-03-26T17:36:42.358Z,5.4
2018-03-26T17:42:33.259Z,5.19
2018-03-26T17:48:24.157Z,5.28
2018-03-26T17:54:15.056Z,5.76
2018-03-26T18:00:05.910Z,5.88
2018-03-26T18:05:56.785Z,5.61
2018-03-26T18:11:47.646Z,14.61
2018-03-26T18:17:38.599Z,11.89
2018-03-26T18:23:29.420Z,9.19
2018-03-26T18:29:20.331Z,8.41
2018-03-26T18:35:11.193Z,7.37
2018-03-26T18:41:02.018Z,5.87
2018-03-26T18:46:52.930Z,7.14
2018-03-26T18:52:43.775Z,7.43
2018-03-26T18:58:34.663Z,8.12
2018-03-26T19:04:25.549Z,8.17
2018-03-26T19:10:16.386Z,7.71
2018-03-26T19:16:07.283Z,8.69
2018-03-26T19:21:58.119Z,7.44
2018-03-26T19:27:49.010Z,7.56
2018-03-26T19:33:39.873Z,7.19
2018-03-26T19:39:30.787Z,6.99
2018-03-26T19:45:21.660Z,6.94
2018-03-26T19:51:12.523Z,6.34
2018-03-26T19:57:03.388Z,7.14
2018-03-26T20:02:54.256Z,6.79
2018-03-26T20:08:45.179Z,6.7
2018-03-26T20:14:35.996Z,9.35
2018-03-26T20:20:26.885Z,11.79
2018-03-26T20:26:17.721Z,12.16
2018-03-26T20:32:08.639Z,10.96
2018-03-26T20:37:59.479Z,10.23
2018-03-26T20:43:50.345Z,10.6
2018-03-26T20:49:41.221Z,9.9
2018-03-26T20:55:32.096Z,11.26
2018-03-26T21:01:22.953Z,10.78
2018-03-26T21:07:13.874Z,11.04
2018-03-26T21:13:04.721Z,12.32
2018-03-26T21:18:55.558Z,14.42
2018-03-26T21:24:46.413Z,16.47
2018-03-26T21:30:37.357Z,15.12
2018-03-26T21:36:28.173Z,15.49
2018-03-26T21:42:18.975Z,14.67
2018-03-26T21:48:09.875Z,14.88
2018-03-26T21:54:00.734Z,14.92
2018-03-26T21:59:51.648Z,12.24
2018-03-26T22:05:42.462Z,11.2
2018-03-26T22:11:33.330Z,11.43
2018-03-26T22:17:24.203Z,12.54
2018-03-26T22:23:15.084Z,10.32
2018-03-26T22:29:05.922Z,10.51
2018-03-26T22:34:56.775Z,8.65
2018-03-26T22:40:47.674Z,8.6
2018-03-26T22:46:38.517Z,8.74
2018-03-26T22:52:29.439Z,8.62
2018-03-26T22:58:20.251Z,8.07
2018-03-26T23:04:11.089Z,7.65
2018-03-26T23:10:01.988Z,7.89
2018-03-26T23:15:52.816Z,7.93
2018-03-26T23:21:43.661Z,7.06
2018-03-26T23:27:34.538Z,9.52
2018-03-26T23:33:25.360Z,11.54
2018-03-26T23:39:16.264Z,12.6
2018-03-26T23:45:07.137Z,14.97
2018-03-26T23:50:58.017Z,14.65
2018-03-26T23:56:48.855Z,14.32
